Time;durP1;ratioP1;P1;durP2;ratioP2;P2;SDS_P1;SDS_P2;PMS_P1;PMS_P2;Temp;Humidity;BMP_temperature;BMP_pressure;BME280_temperature;BME280_humidity;BME280_pressure;Samples;Min_cycle;Max_cycle;Signal;HPM_P1;HPM_P2
2024/04/14 00:00:25;;;;;;;10.32;4.70;;;;;;;18.54;60.73;100837.38;5490140;26;20030;-53
2024/04/14 00:02:55;;;;;;;11.45;5.20;;;;;;;18.46;60.95;100832.63;5488930;26;19994;-51
2024/04/14 00:05:27;;;;;;;10.00;5.03;;;;;;;18.42;61.54;100833.00;5488905;26;19998;-51
2024/04/14 00:07:57;;;;;;;9.35;4.53;;;;;;;18.19;62.28;100834.91;5488973;26;20009;-55
2024/04/14 00:10:25;;;;;;;9.80;5.00;;;;;;;18.27;60.75;100841.41;5488566;26;19994;-54
2024/04/14 00:12:55;;;;;;;9.13;5.40;;;;;;;18.21;61.64;100839.19;5488792;26;19998;-56
2024/04/14 00:15:24;;;;;;;10.95;4.65;;;;;;;18.31;61.75;100829.34;5488697;26;20001;-56
2024/04/14 00:17:54;;;;;;;9.32;5.20;;;;;;;18.30;61.57;100824.06;5488842;26;20071;-55
2024/04/14 00:20:23;;;;;;;10.95;4.90;;;;;;;18.28;62.48;100826.06;5488818;26;20005;-54
2024/04/14 00:22:56;;;;;;;9.30;5.13;;;;;;;18.33;61.94;100815.72;5488489;26;19998;-56
2024/04/14 00:25:23;;;;;;;9.55;5.07;;;;;;;18.16;62.79;100817.13;5488973;26;20005;-54
2024/04/14 00:27:53;;;;;;;10.95;5.03;;;;;;;18.18;62.73;100825.09;5488333;26;19998;-52
2024/04/14 00:30:21;;;;;;;12.18;4.85;;;;;;;18.20;63.23;100823.97;5488105;26;20006;-54
2024/04/14 00:32:51;;;;;;;9.75;5.18;;;;;;;18.25;62.72;100810.97;5487989;26;19994;-52
2024/04/14 00:35:21;;;;;;;9.85;4.65;;;;;;;18.25;63.45;100815.53;5487808;26;20006;-55
2024/04/14 00:37:51;;;;;;;9.50;5.15;;;;;;;18.30;62.48;100819.53;5488124;26;19994;-50
2024/04/14 00:40:22;;;;;;;17.77;5.65;;;;;;;18.31;62.71;100815.84;5487940;26;20067;-53
2024/04/14 00:42:58;;;;;;;12.80;5.60;;;;;;;18.27;62.70;100819.78;5488075;26;19998;-52
2024/04/14 00:45:27;;;;;;;9.70;5.55;;;;;;;18.22;62.78;100816.59;5488099;26;20005;-52
2024/04/14 00:47:58;;;;;;;11.85;5.60;;;;;;;18.26;62.87;100811.84;5488020;26;19994;-53
2024/04/14 00:50:26;;;;;;;11.98;5.75;;;;;;;18.03;63.28;100811.00;5488009;26;20002;-54
2024/04/14 00:52:57;;;;;;;11.45;5.05;;;;;;;18.02;63.80;100818.25;5487902;26;20027;-54
2024/04/14 00:55:28;;;;;;;12.50;4.93;;;;;;;18.14;62.92;100805.59;5488004;26;20070;-50
2024/04/14 00:57:59;;;;;;;10.48;5.28;;;;;;;18.06;62.68;100805.38;5487908;26;20010;-53
2024/04/14 01:00:26;;;;;;;9.88;5.07;;;;;;;18.10;63.13;100803.28;5487835;26;20523;-53
2024/04/14 01:02:56;;;;;;;10.07;5.30;;;;;;;18.06;62.72;100797.28;5487739;26;20036;-55
2024/04/14 01:05:25;;;;;;;10.10;4.97;;;;;;;18.02;62.82;100799.38;5487613;26;19998;-52
2024/04/14 01:07:57;;;;;;;13.60;5.25;;;;;;;18.07;63.17;100798.16;5488205;26;20003;-53
2024/04/14 01:10:25;;;;;;;10.02;5.13;;;;;;;18.10;62.28;100790.63;5487675;26;19998;-51
2024/04/14 01:12:58;;;;;;;8.90;5.00;;;;;;;18.06;62.44;100800.00;5487562;26;20018;-56
2024/04/14 01:15:26;;;;;;;;;;;;;;;18.01;62.84;100796.78;5488292;26;20455;-54
2024/04/14 01:17:57;;;;;;;12.05;5.40;;;;;;;18.07;62.51;100790.91;5488022;25;19924;-52
2024/04/14 01:20:25;;;;;;;9.25;4.72;;;;;;;18.02;61.79;100793.13;5487697;26;19998;-53
2024/04/14 01:22:55;;;;;;;10.95;5.40;;;;;;;18.07;61.75;100793.59;5487684;26;19998;-52
2024/04/14 01:25:25;;;;;;;8.15;4.53;;;;;;;18.08;61.68;100797.16;5487794;26;19997;-50
2024/04/14 01:27:56;;;;;;;11.07;5.55;;;;;;;18.06;62.46;100794.59;5487650;26;20009;-50
2024/04/14 01:30:24;;;;;;;10.90;4.90;;;;;;;18.09;62.42;100788.06;5487516;26;20009;-49
2024/04/14 01:32:54;;;;;;;9.88;5.30;;;;;;;17.99;62.28;100793.38;5487696;26;19998;-49
2024/04/14 01:35:22;;;;;;;11.25;5.50;;;;;;;17.99;63.00;100788.84;5487713;26;20005;-50
2024/04/14 01:37:53;;;;;;;11.77;4.95;;;;;;;18.03;62.17;100778.63;5487702;26;20030;-50
2024/04/14 01:40:37;;;;;;;9.18;4.65;;;;;;;17.99;62.85;100787.97;5487575;26;20346;-51
2024/04/14 01:43:08;;;;;;;9.13;5.00;;;;;;;17.87;63.01;100783.59;5487634;26;19998;-50
2024/04/14 01:45:36;;;;;;;9.90;4.82;;;;;;;17.88;62.94;100782.63;5487698;26;20009;-50
2024/04/14 01:48:07;;;;;;;9.15;4.75;;;;;;;17.78;63.67;100778.97;5487053;26;20016;-51
2024/04/14 01:50:36;;;;;;;13.13;5.15;;;;;;;17.82;63.24;100775.00;5487072;26;20022;-51
2024/04/14 01:53:07;;;;;;;13.43;5.53;;;;;;;17.79;63.17;100781.53;5487567;26;20009;-49
2024/04/14 01:55:37;;;;;;;7.50;4.68;;;;;;;17.72;63.80;100774.91;5485564;26;19998;-53
2024/04/14 01:58:07;;;;;;;10.98;4.80;;;;;;;17.70;63.63;100777.72;5487395;26;19998;-52
2024/04/14 02:00:35;;;;;;;9.50;5.30;;;;;;;17.69;63.92;100781.41;5486437;26;20005;-52
2024/04/14 02:03:05;;;;;;;11.63;5.32;;;;;;;17.62;64.95;100784.69;5486208;26;20457;-55
2024/04/14 02:05:33;;;;;;;10.13;5.22;;;;;;;17.59;64.80;100782.25;5486482;26;19998;-53
2024/04/14 02:08:04;;;;;;;14.10;5.40;;;;;;;17.50;64.87;100774.91;5486722;26;20030;-53
2024/04/14 02:10:38;;;;;;;9.73;5.20;;;;;;;17.33;65.74;100770.88;5486801;26;20002;-54
2024/04/14 02:13:11;;;;;;;10.85;5.80;;;;;;;17.29;65.22;100772.97;5486806;26;20017;-52
2024/04/14 02:15:40;;;;;;;8.38;5.57;;;;;;;17.32;65.78;100771.84;5486464;26;19998;-53
2024/04/14 02:18:10;;;;;;;12.43;5.53;;;;;;;17.33;65.74;100784.34;5486628;26;20008;-52
2024/04/14 02:20:38;;;;;;;9.60;5.82;;;;;;;17.25;65.48;100778.72;5486611;26;19998;-53
2024/04/14 02:23:08;;;;;;;12.82;5.93;;;;;;;17.22;65.92;100776.25;5486723;26;20009;-49
2024/04/14 02:25:36;;;;;;;9.55;5.53;;;;;;;17.09;66.22;100771.84;5486550;26;20002;-53
2024/04/14 02:28:07;;;;;;;8.80;5.30;;;;;;;16.91;66.46;100764.38;5486680;26;19994;-52
2024/04/14 02:30:38;;;;;;;12.38;5.93;;;;;;;16.83;67.02;100768.50;5486372;26;20344;-53
2024/04/14 02:33:09;;;;;;;10.50;5.47;;;;;;;16.97;66.17;100761.16;5486215;26;20020;-54
2024/04/14 02:35:39;;;;;;;11.00;5.57;;;;;;;17.00;65.96;100761.81;5486438;26;20026;-52
2024/04/14 02:38:10;;;;;;;9.50;5.43;;;;;;;17.10;65.88;100760.09;5486347;26;19998;-54
2024/04/14 02:40:38;;;;;;;8.98;5.28;;;;;;;17.07;65.85;100756.75;5486201;26;20034;-51
2024/04/14 02:43:09;;;;;;;10.27;5.45;;;;;;;17.04;65.95;100760.56;5486245;26;20008;-50
2024/04/14 02:45:40;;;;;;;8.93;5.43;;;;;;;17.09;65.76;100755.69;5486357;26;20005;-51
2024/04/14 02:48:10;;;;;;;11.63;5.95;;;;;;;16.92;66.61;100756.16;5486231;26;20439;-51
2024/04/14 02:50:38;;;;;;;12.38;5.60;;;;;;;16.88;66.90;100757.34;5486158;26;20029;-53
2024/04/14 02:53:08;;;;;;;12.00;5.80;;;;;;;16.90;66.56;100758.13;5486278;26;19998;-51
2024/04/14 02:55:36;;;;;;;9.27;5.70;;;;;;;16.97;66.57;100759.31;5486280;26;19998;-49
2024/04/14 02:58:07;;;;;;;12.25;6.10;;;;;;;16.99;65.98;100757.41;5486174;26;20071;-49
2024/04/14 03:00:35;;;;;;;13.70;5.72;;;;;;;16.93;66.34;100754.31;5485911;26;20451;-50
2024/04/14 03:03:08;;;;;;;9.70;5.60;;;;;;;16.91;66.55;100756.28;5486238;26;20005;-53
2024/04/14 03:05:36;;;;;;;;;;;;;;;16.96;65.82;100757.63;5486836;26;20034;-53
2024/04/14 03:08:07;;;;;;;9.70;5.97;;;;;;;16.85;66.37;100754.91;5486170;26;19932;-51
2024/04/14 03:10:35;;;;;;;9.07;5.35;;;;;;;16.85;65.99;100752.22;5485785;26;19995;-51
2024/04/14 03:13:06;;;;;;;12.52;5.63;;;;;;;16.84;66.46;100750.50;5484416;26;20036;-56
2024/04/14 03:15:36;;;;;;;9.25;5.10;;;;;;;16.74;66.37;100744.13;5485899;26;20459;-51
2024/04/14 03:18:10;;;;;;;10.68;5.28;;;;;;;16.74;66.42;100744.97;5485670;26;19998;-53
2024/04/14 03:20:37;;;;;;;10.00;5.43;;;;;;;16.80;66.38;100740.97;5485481;26;20026;-54
2024/04/14 03:23:08;;;;;;;9.52;6.03;;;;;;;16.69;66.09;100746.28;5485652;26;20002;-56
2024/04/14 03:25:36;;;;;;;9.88;5.15;;;;;;;16.73;66.56;100737.03;5485475;26;20005;-52
2024/04/14 03:28:07;;;;;;;9.85;5.68;;;;;;;16.69;66.88;100735.53;5485521;26;20006;-52
2024/04/14 03:30:36;;;;;;;9.73;5.07;;;;;;;16.62;67.00;100732.44;5485292;26;20026;-51
2024/04/14 03:33:10;;;;;;;10.15;5.63;;;;;;;16.54;67.18;100734.88;5485674;26;19997;-53
2024/04/14 03:35:37;;;;;;;;;;;;;;;16.47;67.74;100730.91;5485821;26;20070;-51
2024/04/14 03:38:08;;;;;;;10.20;4.93;;;;;;;16.55;67.38;100739.28;5485358;26;19932;-52
2024/04/14 03:40:38;;;;;;;10.35;5.70;;;;;;;16.46;67.98;100734.59;5485304;26;20006;-51
2024/04/14 03:43:08;;;;;;;11.40;6.38;;;;;;;16.39;67.89;100731.50;5485395;26;20005;-52
2024/04/14 03:45:43;;;;;;;9.82;5.50;;;;;;;16.30;68.75;100732.22;5485314;26;20002;-52
2024/04/14 03:48:16;;;;;;;14.48;5.90;;;;;;;16.08;69.73;100730.31;5485399;26;19995;-52
2024/04/14 03:50:45;;;;;;;10.93;5.53;;;;;;;16.13;69.38;100732.66;5485267;26;20320;-50
2024/04/14 03:53:16;;;;;;;10.45;5.85;;;;;;;16.06;69.87;100732.25;5485292;26;20077;-52
2024/04/14 03:55:44;;;;;;;8.43;5.53;;;;;;;16.06;69.78;100726.00;5485557;26;20446;-55
2024/04/14 03:58:14;;;;;;;9.13;5.63;;;;;;;15.92;70.42;100725.22;5485176;26;20075;-52
2024/04/14 04:00:42;;;;;;;13.65;5.85;;;;;;;16.02;70.40;100736.16;5485344;26;20025;-52
2024/04/14 04:03:12;;;;;;;10.38;5.90;;;;;;;16.01;70.53;100734.41;5485552;26;20018;-50
2024/04/14 04:05:52;;;;;;;10.68;6.30;;;;;;;15.89;71.05;100736.19;5484762;26;20009;-54
2024/04/14 04:08:23;;;;;;;10.95;6.18;;;;;;;15.90;70.98;100743.28;5484855;26;20304;-52
2024/04/14 04:10:58;;;;;;;11.95;6.10;;;;;;;16.05;70.03;100735.06;5484993;26;20408;-53
2024/04/14 04:13:29;;;;;;;10.05;6.07;;;;;;;15.94;70.80;100744.81;5485013;26;20386;-51
2024/04/14 04:15:57;;;;;;;9.48;6.60;;;;;;;15.89;71.32;100746.97;5484674;26;20344;-53
2024/04/14 04:18:27;;;;;;;13.45;6.55;;;;;;;15.80;72.27;100738.72;5484695;26;20031;-54
2024/04/14 04:21:02;;;;;;;14.82;6.38;;;;;;;15.97;71.20;100741.00;5484592;26;19998;-53
2024/04/14 04:23:30;;;;;;;10.30;5.78;;;;;;;15.83;71.93;100742.06;5486042;26;20001;-52
2024/04/14 04:26:01;;;;;;;10.98;6.40;;;;;;;15.72;72.43;100744.66;5488514;26;20280;-53
2024/04/14 04:28:30;;;;;;;11.40;6.72;;;;;;;15.58;73.32;100742.97;5488408;26;19998;-53
2024/04/14 04:31:12;;;;;;;11.30;6.35;;;;;;;15.65;73.33;100743.41;5488235;25;20388;-54
2024/04/14 04:33:41;;;;;;;15.52;6.72;;;;;;;15.71;73.46;100743.78;5488393;26;20026;-51
2024/04/14 04:36:17;;;;;;;14.15;7.05;;;;;;;15.79;73.02;100737.84;5488494;26;20006;-50
2024/04/14 04:38:45;;;;;;;13.23;7.28;;;;;;;15.84;72.83;100735.69;5488239;26;20471;-52
2024/04/14 04:41:15;;;;;;;13.88;7.15;;;;;;;15.68;73.48;100733.28;5488024;26;19994;-49
2024/04/14 04:43:43;;;;;;;12.90;7.10;;;;;;;15.89;73.00;100732.66;5487925;26;20005;-55
2024/04/14 04:46:13;;;;;;;11.40;7.22;;;;;;;15.81;73.60;100738.59;5487881;26;20364;-52
2024/04/14 04:48:41;;;;;;;9.30;6.32;;;;;;;15.73;74.06;100741.03;5488227;26;20002;-52
2024/04/14 04:51:14;;;;;;;16.30;7.57;;;;;;;15.72;74.06;100731.22;5487920;26;20012;-55
2024/04/14 04:53:42;;;;;;;14.25;7.20;;;;;;;15.73;74.37;100735.66;5488014;26;19998;-53
2024/04/14 04:56:13;;;;;;;10.45;6.90;;;;;;;15.84;73.30;100732.16;5487969;26;19994;-52
2024/04/14 04:58:40;;;;;;;15.82;7.38;;;;;;;15.85;73.46;100733.88;5488019;26;20009;-52
2024/04/14 05:01:12;;;;;;;11.13;6.85;;;;;;;15.83;73.74;100720.53;5487787;26;20062;-52
2024/04/14 05:03:40;;;;;;;11.02;6.80;;;;;;;15.96;73.20;100728.53;5488224;26;20012;-51
2024/04/14 05:06:14;;;;;;;15.65;7.57;;;;;;;16.10;72.79;100722.09;5487751;26;20030;-51
2024/04/14 05:08:41;;;;;;;11.15;6.82;;;;;;;16.17;72.33;100726.91;5488136;26;20023;-52
2024/04/14 05:11:11;;;;;;;12.50;7.00;;;;;;;16.30;71.39;100719.59;5487928;26;20072;-51
2024/04/14 05:13:39;;;;;;;11.48;6.75;;;;;;;16.36;71.85;100728.19;5487794;26;20567;-49
2024/04/14 05:16:10;;;;;;;15.75;7.75;;;;;;;16.65;70.21;100723.25;5488273;26;19998;-51
2024/04/14 05:18:38;;;;;;;13.25;7.38;;;;;;;16.94;69.60;100724.53;5487759;26;20030;-50
2024/04/14 05:21:09;;;;;;;15.07;7.25;;;;;;;17.28;68.19;100725.41;5488075;26;20002;-51
2024/04/14 05:23:39;;;;;;;12.20;7.28;;;;;;;17.46;67.12;100720.34;5487830;26;20009;-52
2024/04/14 05:26:09;;;;;;;17.35;7.85;;;;;;;17.46;66.38;100717.66;5488129;26;20002;-50
2024/04/14 05:28:36;;;;;;;15.18;8.10;;;;;;;17.13;68.44;100714.03;5487746;26;20462;-50
2024/04/14 05:31:07;;;;;;;12.15;7.50;;;;;;;16.87;69.54;100723.31;5487572;26;20435;-49
2024/04/14 05:33:35;;;;;;;14.90;7.78;;;;;;;17.14;68.52;100717.56;5487587;26;20093;-51
2024/04/14 05:36:06;;;;;;;11.85;7.63;;;;;;;17.00;68.69;100718.69;5486088;26;19994;-52
2024/04/14 05:38:35;;;;;;;17.50;7.25;;;;;;;17.24;68.82;100720.38;5487734;26;20438;-50
2024/04/14 05:41:08;;;;;;;10.60;7.60;;;;;;;17.40;67.88;100716.31;5487822;26;20005;-51
2024/04/14 05:43:36;;;;;;;;;;;;;;;17.78;66.91;100708.81;5488188;26;19998;-49
2024/04/14 05:46:06;;;;;;;12.57;7.30;;;;;;;18.02;66.14;100706.75;5487386;26;19924;-54
2024/04/14 05:48:35;;;;;;;12.32;7.75;;;;;;;18.24;65.54;100700.41;5485787;26;20001;-52
2024/04/14 05:51:06;;;;;;;16.35;8.18;;;;;;;18.48;63.90;100697.44;5487398;26;20423;-54
2024/04/14 05:53:33;;;;;;;14.40;8.18;;;;;;;18.70;63.57;100702.72;5506933;26;20016;-49
2024/04/14 05:56:04;;;;;;;11.65;7.57;;;;;;;18.96;63.18;100694.19;5524149;25;20012;-53
2024/04/14 05:58:34;;;;;;;15.55;7.55;;;;;;;19.19;63.11;100698.38;5524197;25;20003;-51
2024/04/14 06:01:08;;;;;;;21.33;13.13;;;;;;;19.33;62.35;100698.03;5524111;25;20016;-51
2024/04/14 06:03:37;;;;;;;18.42;9.57;;;;;;;19.35;61.71;100693.31;5523999;25;20000;-50
2024/04/14 06:06:07;;;;;;;14.05;7.55;;;;;;;19.34;62.04;100702.44;5523852;25;19998;-52
2024/04/14 06:08:35;;;;;;;14.00;7.43;;;;;;;19.65;61.54;100697.84;5523465;25;20009;-52
2024/04/14 06:11:07;;;;;;;12.50;7.07;;;;;;;19.84;60.47;100693.44;5523712;25;20033;-51
2024/04/14 06:13:37;;;;;;;12.10;6.55;;;;;;;20.00;60.22;100691.91;5524411;25;20016;-53
2024/04/14 06:16:08;;;;;;;11.02;6.40;;;;;;;20.13;60.23;100688.03;5524127;25;19998;-52
2024/04/14 06:18:35;;;;;;;10.70;6.07;;;;;;;20.19;59.59;100688.31;5524091;25;20041;-49
2024/04/14 06:21:06;;;;;;;12.90;6.55;;;;;;;20.39;59.04;100678.31;5523819;25;20004;-52
2024/04/14 06:23:34;;;;;;;9.43;6.53;;;;;;;20.58;58.58;100681.03;5523628;25;20007;-50
2024/04/14 06:26:04;;;;;;;10.05;6.15;;;;;;;20.71;57.90;100677.13;5523589;25;20361;-50
2024/04/14 06:28:33;;;;;;;9.70;5.82;;;;;;;20.72;58.05;100684.25;5523511;25;19997;-52
2024/04/14 06:31:06;;;;;;;10.95;5.80;;;;;;;20.75;57.82;100681.25;5523277;25;19993;-54
2024/04/14 06:33:34;;;;;;;9.45;6.00;;;;;;;20.90;57.32;100676.22;5523823;25;20025;-51
2024/04/14 06:36:06;;;;;;;8.35;5.80;;;;;;;20.94;57.22;100674.91;5523105;25;19993;-53
2024/04/14 06:38:34;;;;;;;11.00;5.53;;;;;;;21.19;56.57;100676.09;5523532;25;20395;-54
2024/04/14 06:41:03;;;;;;;9.82;5.75;;;;;;;21.21;56.86;100679.50;5523409;25;20005;-54
2024/04/14 06:43:31;;;;;;;11.27;6.07;;;;;;;21.50;55.69;100682.94;5523450;25;20004;-49
2024/04/14 06:46:02;;;;;;;10.85;5.90;;;;;;;21.59;55.82;100668.44;5522779;25;19997;-54
2024/04/14 06:48:33;;;;;;;8.68;5.60;;;;;;;21.71;55.55;100664.53;5523146;25;20017;-52
2024/04/14 06:51:03;;;;;;;8.60;5.60;;;;;;;21.65;55.56;100673.28;5522941;25;20001;-50
2024/04/14 06:53:31;;;;;;;11.32;5.82;;;;;;;21.92;54.79;100672.38;5522818;25;20411;-50
2024/04/14 06:56:01;;;;;;;11.65;6.18;;;;;;;21.82;54.73;100676.16;5522895;25;20009;-52
2024/04/14 06:58:28;;;;;;;13.30;8.45;;;;;;;21.80;55.14;100679.00;5522864;25;20009;-52
2024/04/14 07:00:59;;;;;;;12.68;7.43;;;;;;;22.05;54.58;100663.81;5523060;25;20025;-53
2024/04/14 07:03:27;;;;;;;10.90;6.22;;;;;;;21.97;55.44;100671.88;5522820;25;20021;-53
2024/04/14 07:06:00;;;;;;;9.35;5.95;;;;;;;22.05;55.15;100674.69;5522627;25;19998;-52
2024/04/14 07:08:28;;;;;;;10.80;6.30;;;;;;;22.27;54.75;100682.38;5522273;26;20335;-54
2024/04/14 07:10:59;;;;;;;13.43;7.32;;;;;;;22.58;54.02;100681.91;5522702;25;19998;-52
2024/04/14 07:13:27;;;;;;;9.35;6.13;;;;;;;22.31;54.99;100676.63;5522458;25;19997;-56
2024/04/14 07:15:57;;;;;;;10.82;4.18;;;;;;;22.64;55.93;100681.28;5522521;25;20005;-57
2024/04/14 07:18:25;;;;;;;7.28;4.70;;;;;;;23.05;54.63;100684.28;5522235;25;20030;-58
2024/04/14 07:20:56;;;;;;;6.95;3.83;;;;;;;23.40;54.45;100678.66;5522417;25;20364;-54
2024/04/14 07:23:28;;;;;;;8.25;3.42;;;;;;;23.49;53.90;100686.84;5492606;25;20292;-58
2024/04/14 07:25:58;;;;;;;9.43;5.35;;;;;;;23.27;53.42;100678.28;5485766;26;20009;-58
2024/04/14 07:28:26;;;;;;;8.77;4.88;;;;;;;23.70;52.35;100679.09;5485429;26;20009;-56
2024/04/14 07:30:56;;;;;;;8.57;4.72;;;;;;;23.78;52.72;100681.84;5485565;26;20006;-57
2024/04/14 07:33:24;;;;;;;8.65;5.10;;;;;;;23.67;52.02;100674.00;5485882;26;19994;-56
2024/04/14 07:35:54;;;;;;;7.53;5.25;;;;;;;23.64;51.93;100674.31;5483377;26;20480;-57
2024/04/14 07:38:22;;;;;;;10.13;5.10;;;;;;;23.92;51.52;100667.56;5493014;26;20010;-57
2024/04/14 07:40:54;;;;;;;8.18;4.53;;;;;;;24.06;51.12;100662.47;5519503;25;20372;-54
2024/04/14 07:43:22;;;;;;;8.40;4.80;;;;;;;24.12;51.31;100662.63;5521762;25;20013;-53
2024/04/14 07:45:52;;;;;;;8.98;4.72;;;;;;;24.23;51.59;100661.47;5498081;25;20013;-55
2024/04/14 07:48:19;;;;;;;7.15;4.20;;;;;;;24.12;51.65;100659.91;5484921;26;20514;-55
2024/04/14 07:50:50;;;;;;;9.45;4.05;;;;;;;24.43;51.06;100657.38;5503230;26;20001;-56
2024/04/14 07:53:18;;;;;;;6.70;3.42;;;;;;;24.66;50.73;100659.38;5521359;25;20002;-56
2024/04/14 07:55:49;;;;;;;8.52;4.38;;;;;;;24.73;49.74;100660.41;5485643;25;20082;-56
2024/04/14 07:58:19;;;;;;;9.02;4.30;;;;;;;24.79;49.24;100659.69;5487192;26;20426;-55
2024/04/14 08:00:49;;;;;;;8.20;3.78;;;;;;;24.88;49.32;100649.59;5502212;26;20066;-56
2024/04/14 08:03:17;;;;;;;6.32;4.25;;;;;;;24.88;49.14;100647.72;5488004;26;20396;-55
2024/04/14 08:05:48;;;;;;;8.00;4.35;;;;;;;24.82;48.59;100645.72;5487223;26;19998;-54
2024/04/14 08:08:16;;;;;;;7.45;4.10;;;;;;;24.74;48.42;100649.31;5487971;26;20288;-57
2024/04/14 08:10:46;;;;;;;8.75;4.32;;;;;;;24.93;48.41;100645.34;5504947;26;20019;-57
2024/04/14 08:13:14;;;;;;;9.13;4.57;;;;;;;24.77;48.14;100639.91;5524615;25;19997;-56
2024/04/14 08:15:47;;;;;;;11.07;5.22;;;;;;;24.99;48.36;100644.59;5517316;25;20002;-59
2024/04/14 08:18:18;;;;;;;8.57;4.50;;;;;;;24.93;48.34;100639.88;5516902;26;20034;-58
2024/04/14 08:20:58;;;;;;;9.10;4.47;;;;;;;24.99;48.23;100641.03;5525152;25;20315;-57
2024/04/14 08:23:26;;;;;;;8.10;4.57;;;;;;;25.14;47.96;100636.59;5507895;25;20416;-56
2024/04/14 08:25:56;;;;;;;8.00;3.90;;;;;;;25.23;47.78;100637.41;5488456;26;20119;-55
2024/04/14 08:28:24;;;;;;;8.68;4.20;;;;;;;25.27;47.24;100630.53;5488168;26;19995;-55
2024/04/14 08:30:57;;;;;;;10.10;4.43;;;;;;;25.29;47.27;100637.53;5488190;26;20004;-55
2024/04/14 08:33:25;;;;;;;8.77;4.45;;;;;;;25.47;46.82;100626.31;5488456;26;20012;-55
2024/04/14 08:35:56;;;;;;;7.32;4.03;;;;;;;25.47;47.04;100620.88;5488205;26;20352;-56
2024/04/14 08:38:24;;;;;;;9.23;4.38;;;;;;;25.61;46.01;100630.19;5488215;26;20009;-57
2024/04/14 08:40:55;;;;;;;7.45;4.28;;;;;;;25.76;46.02;100636.59;5488142;26;20051;-57
2024/04/14 08:43:22;;;;;;;6.85;4.07;;;;;;;25.81;45.91;100627.84;5487805;26;20074;-57
2024/04/14 08:45:53;;;;;;;7.72;3.88;;;;;;;25.93;45.69;100635.44;5487467;26;19998;-60
2024/04/14 08:48:24;;;;;;;7.55;3.80;;;;;;;25.81;45.79;100627.84;5485178;26;20481;-57
2024/04/14 08:50:57;;;;;;;9.35;4.15;;;;;;;25.93;46.05;100629.97;5486110;26;19994;-57
2024/04/14 08:53:28;;;;;;;10.25;4.40;;;;;;;25.92;45.67;100630.16;5487780;26;20454;-59
2024/04/14 08:55:59;;;;;;;7.28;4.00;;;;;;;25.95;45.87;100632.50;5488052;26;20411;-57
2024/04/14 08:58:28;;;;;;;7.00;3.95;;;;;;;26.02;45.02;100630.75;5486244;26;19997;-58
2024/04/14 09:01:04;;;;;;;7.68;3.75;;;;;;;26.13;45.18;100627.59;5486193;26;19994;-58
2024/04/14 09:03:34;;;;;;;9.82;4.25;;;;;;;26.00;45.04;100632.84;5487025;26;20026;-57
2024/04/14 09:06:07;;;;;;;7.03;4.05;;;;;;;25.97;45.48;100622.28;5487565;26;20005;-55
2024/04/14 09:08:34;;;;;;;9.18;4.47;;;;;;;26.18;45.02;100625.16;5487767;26;20014;-57
2024/04/14 09:11:05;;;;;;;8.65;4.53;;;;;;;26.35;44.87;100627.75;5487428;26;19998;-54
2024/04/14 09:13:34;;;;;;;10.60;6.57;;;;;;;26.55;44.62;100628.09;5487254;26;19998;-57
2024/04/14 09:16:04;;;;;;;8.63;3.92;;;;;;;26.68;44.52;100625.56;5487360;26;20069;-56
2024/04/14 09:18:35;;;;;;;6.90;3.75;;;;;;;26.75;44.30;100631.97;5487030;26;20002;-55
2024/04/14 09:21:06;;;;;;;8.35;3.75;;;;;;;26.87;43.33;100633.19;5487152;26;20006;-57
2024/04/14 09:23:33;;;;;;;6.70;3.78;;;;;;;26.93;43.20;100634.34;5486906;26;20411;-54
2024/04/14 09:26:05;;;;;;;6.65;3.72;;;;;;;27.01;42.63;100626.00;5487229;26;20105;-57
2024/04/14 09:28:33;;;;;;;7.70;3.77;;;;;;;27.09;42.64;100623.19;5486999;26;20070;-56
2024/04/14 09:31:03;;;;;;;6.00;3.88;;;;;;;27.18;42.06;100622.06;5487373;26;19998;-55
2024/04/14 09:33:34;;;;;;;6.95;3.53;;;;;;;27.19;42.28;100623.75;5487026;26;20421;-56
2024/04/14 09:36:04;;;;;;;7.38;3.40;;;;;;;27.22;42.63;100623.41;5486911;26;20022;-57
2024/04/14 09:38:33;;;;;;;11.30;4.18;;;;;;;27.33;42.22;100620.16;5487064;26;20009;-56
2024/04/14 09:41:03;;;;;;;5.72;3.63;;;;;;;27.25;42.07;100625.75;5486871;26;19994;-56
2024/04/14 09:43:32;;;;;;;7.57;3.90;;;;;;;27.37;41.99;100610.50;5486876;26;20050;-55
2024/04/14 09:46:05;;;;;;;4.68;3.45;;;;;;;27.41;42.57;100608.25;5487055;26;20002;-56
2024/04/14 09:48:36;;;;;;;5.93;3.20;;;;;;;27.41;42.06;100604.63;5487110;26;19997;-57
2024/04/14 09:51:07;;;;;;;5.85;3.40;;;;;;;27.48;41.29;100605.56;5486887;26;19998;-58
2024/04/14 09:53:35;;;;;;;9.60;3.80;;;;;;;27.48;40.37;100600.06;5487111;26;19998;-58
2024/04/14 09:56:06;;;;;;;8.18;4.00;;;;;;;27.57;41.22;100601.66;5486807;26;20006;-59
2024/04/14 09:58:34;;;;;;;6.20;3.42;;;;;;;27.56;41.44;100597.22;5487034;26;20341;-56
2024/04/14 10:01:10;;;;;;;7.40;3.75;;;;;;;27.73;40.88;100593.22;5487046;26;20013;-55
2024/04/14 10:03:43;;;;;;;6.43;3.70;;;;;;;27.58;41.50;100595.13;5487111;26;20434;-58
2024/04/14 10:06:15;;;;;;;7.87;3.50;;;;;;;27.61;41.54;100595.59;5487289;26;20427;-57
2024/04/14 10:08:43;;;;;;;8.77;3.35;;;;;;;27.70;41.05;100592.75;5487012;26;20345;-59
2024/04/14 10:11:14;;;;;;;7.20;3.80;;;;;;;27.75;40.99;100590.28;5486751;26;20009;-57
2024/04/14 10:13:48;;;;;;;7.13;3.58;;;;;;;27.85;40.79;100588.91;5486549;26;20556;-56
2024/04/14 10:16:20;;;;;;;7.72;3.53;;;;;;;27.87;40.64;100586.81;5486575;26;20010;-55
2024/04/14 10:18:51;;;;;;;7.00;3.27;;;;;;;27.84;40.33;100578.13;5486469;26;20014;-57
2024/04/14 10:21:24;;;;;;;7.35;3.22;;;;;;;27.87;39.95;100578.59;5485493;26;19998;-57
2024/04/14 10:23:52;;;;;;;6.32;3.40;;;;;;;28.02;39.95;100574.94;5486614;26;20004;-57
2024/04/14 10:26:23;;;;;;;6.97;3.35;;;;;;;28.09;39.46;100568.47;5486559;26;20009;-56
2024/04/14 10:28:52;;;;;;;6.05;3.50;;;;;;;28.17;39.52;100575.66;5486404;26;19994;-57
2024/04/14 10:31:34;;;;;;;5.15;2.92;;;;;;;28.14;37.69;100567.84;5486472;26;20004;-57
2024/04/14 10:34:08;;;;;;;4.57;2.70;;;;;;;28.17;36.54;100567.44;5486386;26;20021;-60
2024/04/14 10:36:42;;;;;;;5.40;2.67;;;;;;;28.25;35.60;100561.81;5486293;26;19994;-56
2024/04/14 10:39:14;;;;;;;5.38;2.60;;;;;;;28.24;34.58;100568.34;5486694;26;20326;-57
2024/04/14 10:41:45;;;;;;;5.03;2.38;;;;;;;28.28;33.79;100563.28;5486438;26;20002;-57
2024/04/14 10:44:15;;;;;;;4.25;2.42;;;;;;;28.35;33.25;100570.56;5486129;26;19998;-57
2024/04/14 10:46:46;;;;;;;4.47;2.40;;;;;;;28.39;33.68;100565.53;5486297;26;19994;-57
2024/04/14 10:49:17;;;;;;;4.90;2.33;;;;;;;28.51;33.73;100564.78;5486464;26;20009;-61
2024/04/14 10:51:48;;;;;;;5.00;2.55;;;;;;;28.57;33.95;100551.28;5487652;26;19998;-56
2024/04/14 10:54:16;;;;;;;7.45;2.47;;;;;;;28.41;33.33;100550.56;5487300;26;19998;-55
2024/04/14 10:56:47;;;;;;;5.75;2.65;;;;;;;28.40;33.25;100546.13;5487637;26;19998;-59
2024/04/14 10:59:15;;;;;;;6.20;2.85;;;;;;;28.39;33.43;100547.19;5487444;26;20002;-58
2024/04/14 11:01:46;;;;;;;4.90;2.55;;;;;;;28.42;33.68;100538.53;5487504;26;19998;-58
2024/04/14 11:04:17;;;;;;;5.22;2.90;;;;;;;28.54;33.72;100529.75;5487083;26;20022;-58
2024/04/14 11:06:48;;;;;;;5.63;2.58;;;;;;;28.46;33.34;100533.50;5487573;26;20009;-59
2024/04/14 11:09:16;;;;;;;5.95;2.80;;;;;;;28.46;33.73;100523.34;5487295;26;20006;-58
2024/04/14 11:11:47;;;;;;;9.43;3.08;;;;;;;28.54;34.10;100511.38;5485455;26;20025;-55
2024/04/14 11:14:20;;;;;;;6.35;2.90;;;;;;;28.52;34.92;100511.59;5485755;26;20071;-57
2024/04/14 11:16:50;;;;;;;5.57;3.10;;;;;;;28.63;34.91;100512.06;5485630;26;19998;-57
2024/04/14 11:19:21;;;;;;;5.18;2.90;;;;;;;28.63;34.53;100506.56;5485607;26;20009;-57
2024/04/14 11:21:51;;;;;;;5.25;2.80;;;;;;;28.65;34.10;100498.97;5486109;26;20322;-56
2024/04/14 11:24:20;;;;;;;5.45;2.47;;;;;;;28.59;34.39;100497.06;5485552;26;20009;-59
2024/04/14 11:26:51;;;;;;;6.55;3.05;;;;;;;28.48;33.41;100499.34;5485261;26;20010;-57
2024/04/14 11:29:19;;;;;;;5.18;2.65;;;;;;;28.37;33.50;100494.41;5485086;26;19995;-58
2024/04/14 11:31:50;;;;;;;6.43;2.75;;;;;;;28.24;33.92;100492.41;5485286;26;19994;-57
2024/04/14 11:34:20;;;;;;;5.80;3.00;;;;;;;28.20;33.75;100490.28;5487652;26;20004;-57